createdAt,value
2018-07-17T00:02:03.151Z,24.31
2018-07-17T00:04:29.641Z,24.33
2018-07-17T00:06:56.053Z,24.29
2018-07-17T00:09:22.477Z,24.25
2018-07-17T00:11:48.861Z,24.23
2018-07-17T00:14:15.541Z,24.08
2018-07-17T00:16:42.408Z,24.01
2018-07-17T00:19:08.891Z,24.03
2018-07-17T00:21:35.598Z,24.01
2018-07-17T00:24:02.101Z,24.15
2018-07-17T00:26:28.435Z,24.15
2018-07-17T00:28:54.897Z,24.21
2018-07-17T00:31:21.306Z,24.11
2018-07-17T00:33:47.671Z,24.24
2018-07-17T00:36:14.771Z,24.12
2018-07-17T00:38:41.429Z,24.17
2018-07-17T00:41:07.820Z,24.14
2018-07-17T00:43:34.321Z,24.12
2018-07-17T00:46:00.860Z,24.06
2018-07-17T00:48:27.317Z,24.12
2018-07-17T00:51:01.262Z,24.18
2018-07-17T00:53:27.650Z,24.20
2018-07-17T00:55:54.128Z,24.26
2018-07-17T00:58:20.732Z,24.14
2018-07-17T01:00:47.167Z,24.17
2018-07-17T01:03:13.717Z,23.97
2018-07-17T01:05:40.154Z,23.73
2018-07-17T01:08:06.524Z,23.73
2018-07-17T01:10:33.033Z,23.60
2018-07-17T01:12:59.383Z,23.55
2018-07-17T01:15:26.121Z,23.47
2018-07-17T01:17:52.805Z,23.51
2018-07-17T01:20:19.157Z,23.42
2018-07-17T01:22:45.526Z,23.37
2018-07-17T01:25:12.007Z,23.36
2018-07-17T01:27:38.424Z,23.34
2018-07-17T01:30:04.851Z,23.37
2018-07-17T01:32:31.258Z,23.32
2018-07-17T01:34:57.677Z,23.32
2018-07-17T01:37:24.047Z,23.35
2018-07-17T01:39:50.383Z,23.29
2018-07-17T01:42:16.733Z,23.38
2018-07-17T01:44:43.076Z,23.36
2018-07-17T01:47:09.486Z,23.38
2018-07-17T01:49:35.931Z,23.51
2018-07-17T01:52:02.270Z,23.38
2018-07-17T01:54:28.644Z,23.41
2018-07-17T01:56:55.073Z,23.40
2018-07-17T01:59:21.759Z,23.45
2018-07-17T02:01:48.143Z,23.40
2018-07-17T02:04:14.541Z,23.43
2018-07-17T02:06:42.858Z,23.38
2018-07-17T02:09:09.300Z,23.36
2018-07-17T02:11:35.759Z,23.34
2018-07-17T02:14:02.236Z,23.47
2018-07-17T02:16:28.660Z,23.42
2018-07-17T02:18:55.339Z,23.42
2018-07-17T02:21:21.956Z,23.38
2018-07-17T02:23:48.303Z,23.29
2018-07-17T02:26:14.748Z,23.32
2018-07-17T02:28:41.139Z,23.39
2018-07-17T02:31:07.655Z,23.30
2018-07-17T02:33:34.141Z,23.40
2018-07-17T02:36:00.649Z,23.30
2018-07-17T02:38:27.059Z,23.35
2018-07-17T02:40:53.443Z,23.41
2018-07-17T02:43:19.822Z,23.39
2018-07-17T02:45:46.334Z,23.32
2018-07-17T02:48:13.371Z,23.25
2018-07-17T02:50:39.957Z,23.25
2018-07-17T02:53:06.350Z,23.21
2018-07-17T02:55:32.806Z,23.27
2018-07-17T02:57:59.325Z,23.27
2018-07-17T03:00:25.691Z,23.16
2018-07-17T03:02:52.140Z,23.28
2018-07-17T03:05:18.635Z,23.15
2018-07-17T03:07:45.091Z,23.21
2018-07-17T03:10:11.653Z,23.09
2018-07-17T03:12:38.316Z,23.16
2018-07-17T03:15:04.679Z,23.13
2018-07-17T03:17:31.065Z,23.10
2018-07-17T03:19:57.707Z,23.10
2018-07-17T03:22:24.121Z,23.12
2018-07-17T03:24:50.527Z,23.16
2018-07-17T03:27:16.853Z,23.24
2018-07-17T03:29:43.274Z,23.24
2018-07-17T03:32:09.686Z,23.31
2018-07-17T03:34:36.108Z,23.27
2018-07-17T03:37:02.499Z,23.31
2018-07-17T03:39:28.971Z,23.31
2018-07-17T03:41:55.307Z,23.39
2018-07-17T03:44:21.682Z,23.46
2018-07-17T03:46:48.218Z,23.53
2018-07-17T03:49:14.580Z,23.62
2018-07-17T03:51:40.920Z,23.67
2018-07-17T03:54:07.495Z,23.71
2018-07-17T03:56:33.913Z,23.81
2018-07-17T03:59:00.237Z,23.83
2018-07-17T04:01:26.636Z,23.83
2018-07-17T04:03:52.991Z,23.89
2018-07-17T04:06:19.330Z,23.92
2018-07-17T04:08:45.918Z,23.88
2018-07-17T04:11:12.519Z,24.06
2018-07-17T04:13:38.912Z,23.96
2018-07-17T04:16:05.329Z,24.04
2018-07-17T04:18:32.009Z,24.11
2018-07-17T04:20:58.368Z,24.09
2018-07-17T04:23:24.696Z,24.19
2018-07-17T04:25:51.066Z,24.19
2018-07-17T04:28:17.569Z,24.06
2018-07-17T04:30:43.929Z,24.08
2018-07-17T04:33:10.557Z,24.08
2018-07-17T04:35:36.996Z,24.12
2018-07-17T04:38:03.400Z,24.10
2018-07-17T04:40:29.964Z,24.11
2018-07-17T04:42:56.382Z,24.15
2018-07-17T04:45:22.795Z,24.10
2018-07-17T04:47:49.457Z,24.17
2018-07-17T04:50:16.174Z,24.18
2018-07-17T04:52:42.543Z,24.15
2018-07-17T04:55:09.212Z,24.18
2018-07-17T04:57:35.827Z,24.24
2018-07-17T05:00:02.398Z,24.24
2018-07-17T05:02:28.767Z,24.25
2018-07-17T05:04:55.279Z,24.28
2018-07-17T05:07:22.022Z,24.32
2018-07-17T05:09:48.679Z,24.28
2018-07-17T05:12:16.997Z,24.36
2018-07-17T05:14:43.591Z,24.38
2018-07-17T05:17:10.000Z,24.38
2018-07-17T05:19:36.763Z,24.39
2018-07-17T05:22:03.123Z,24.43
2018-07-17T05:24:30.636Z,24.46
2018-07-17T05:26:57.115Z,24.48
2018-07-17T05:29:23.539Z,24.54
2018-07-17T05:31:50.202Z,24.51
2018-07-17T05:34:16.584Z,24.56
2018-07-17T05:36:43.892Z,24.59
2018-07-17T05:39:10.415Z,24.54
2018-07-17T05:41:37.593Z,24.57
2018-07-17T05:44:05.166Z,24.60
2018-07-17T05:46:31.936Z,24.65
2018-07-17T05:48:58.397Z,24.76
2018-07-17T05:51:24.826Z,24.78
2018-07-17T05:53:51.497Z,24.76
2018-07-17T05:56:18.095Z,24.87
2018-07-17T05:58:46.210Z,24.93
2018-07-17T06:01:12.794Z,24.90
2018-07-17T06:03:41.868Z,24.93
2018-07-17T06:06:09.118Z,25.03
2018-07-17T06:08:35.845Z,25.01
2018-07-17T06:11:02.409Z,25.00
2018-07-17T06:13:28.943Z,25.08
2018-07-17T06:15:55.561Z,25.03
2018-07-17T06:18:21.999Z,25.03
2018-07-17T06:20:48.414Z,25.01
2018-07-17T06:23:15.044Z,25.14
2018-07-17T06:25:41.702Z,25.16
2018-07-17T06:28:08.367Z,25.15
2018-07-17T06:30:35.261Z,25.12
2018-07-17T06:33:01.875Z,25.21
2018-07-17T06:35:28.240Z,25.17
2018-07-17T06:37:54.820Z,25.13
2018-07-17T06:40:21.635Z,25.30
2018-07-17T06:42:48.116Z,25.20
2018-07-17T06:45:14.790Z,25.17
2018-07-17T06:47:43.538Z,25.10
2018-07-17T06:50:10.151Z,25.10
2018-07-17T06:52:36.892Z,25.14
2018-07-17T06:55:03.509Z,25.14
2018-07-17T06:57:30.331Z,25.17
2018-07-17T06:59:58.104Z,25.09
2018-07-17T07:02:24.798Z,25.03
2018-07-17T07:04:52.581Z,25.09
2018-07-17T07:07:19.140Z,25.13
2018-07-17T07:09:45.797Z,25.05
2018-07-17T07:12:12.665Z,25.07
2018-07-17T07:14:39.203Z,24.94
2018-07-17T07:17:05.993Z,24.97
2018-07-17T07:19:32.705Z,25.00
2018-07-17T07:21:59.561Z,24.97
2018-07-17T07:24:27.129Z,24.89
2018-07-17T07:26:54.035Z,24.99
2018-07-17T07:29:20.636Z,24.90
2018-07-17T07:31:47.235Z,24.98
2018-07-17T07:34:14.038Z,24.93
2018-07-17T07:36:41.601Z,24.91
2018-07-17T07:39:08.602Z,24.90
2018-07-17T07:41:38.243Z,24.92
2018-07-17T07:44:05.171Z,24.87
2018-07-17T07:46:32.000Z,24.91
2018-07-17T07:48:58.534Z,24.91
2018-07-17T07:51:24.986Z,24.88
2018-07-17T07:53:52.738Z,24.91
2018-07-17T07:56:20.435Z,24.94
2018-07-17T07:58:46.999Z,24.93
2018-07-17T08:01:14.829Z,24.90
2018-07-17T08:03:42.152Z,24.88
2018-07-17T08:06:09.052Z,24.90
2018-07-17T08:11:14.439Z,24.75
2018-07-17T08:13:41.308Z,24.58
2018-07-17T08:16:08.237Z,24.59
2018-07-17T08:18:34.960Z,24.65
2018-07-17T08:21:01.616Z,24.62
2018-07-17T08:23:28.163Z,24.69
2018-07-17T08:25:55.040Z,24.62
2018-07-17T08:28:21.780Z,24.59
2018-07-17T08:30:48.338Z,24.65
2018-07-17T08:33:15.050Z,24.58
2018-07-17T08:35:41.656Z,24.60
2018-07-17T08:38:08.053Z,24.51
2018-07-17T08:40:34.551Z,24.58
2018-07-17T08:43:01.039Z,24.57
2018-07-17T08:45:27.873Z,24.59
2018-07-17T08:47:55.586Z,24.62
2018-07-17T08:50:22.440Z,24.64
2018-07-17T08:52:49.284Z,24.64
2018-07-17T08:55:16.024Z,24.60
2018-07-17T08:57:43.057Z,24.69
2018-07-17T09:00:10.079Z,24.68
2018-07-17T09:02:36.741Z,24.33
2018-07-17T09:05:04.286Z,24.42
2018-07-17T09:07:31.101Z,24.57
2018-07-17T09:09:57.828Z,24.53
2018-07-17T09:12:24.299Z,24.65
2018-07-17T09:14:51.618Z,24.62
2018-07-17T09:17:18.459Z,24.65
2018-07-17T09:19:44.942Z,24.65
2018-07-17T09:22:11.755Z,24.59
2018-07-17T09:24:38.353Z,24.55
2018-07-17T09:27:04.942Z,24.73
2018-07-17T09:29:31.491Z,24.73
2018-07-17T09:31:58.200Z,24.69
2018-07-17T09:34:24.648Z,24.68
2018-07-17T09:36:51.002Z,24.55
2018-07-17T09:39:17.560Z,24.63
2018-07-17T09:41:44.243Z,24.75
2018-07-17T09:44:11.443Z,24.59
2018-07-17T09:46:38.379Z,24.61
2018-07-17T09:49:05.231Z,24.73
2018-07-17T09:51:31.842Z,24.70
2018-07-17T09:53:58.574Z,24.76
2018-07-17T09:56:25.206Z,24.82
2018-07-17T09:58:51.976Z,24.79
2018-07-17T10:01:18.736Z,24.83
2018-07-17T10:03:45.403Z,24.97
2018-07-17T10:06:12.285Z,24.91
2018-07-17T10:08:39.044Z,24.99
2018-07-17T10:11:05.775Z,25.00
2018-07-17T10:13:32.442Z,24.97
2018-07-17T10:15:58.938Z,25.07
2018-07-17T10:18:25.674Z,25.16
2018-07-17T10:20:52.336Z,25.17
2018-07-17T10:23:19.104Z,25.15
2018-07-17T10:25:45.987Z,25.17
2018-07-17T10:28:12.513Z,25.16
2018-07-17T10:30:46.529Z,25.31
2018-07-17T10:33:13.384Z,25.27
2018-07-17T10:35:40.345Z,25.18
2018-07-17T10:38:07.030Z,25.33
2018-07-17T10:40:33.677Z,25.27
2018-07-17T10:43:00.450Z,25.31
2018-07-17T10:45:27.145Z,25.36
2018-07-17T10:47:54.029Z,25.29
2018-07-17T10:50:21.392Z,25.35
2018-07-17T10:52:48.067Z,25.37
2018-07-17T10:55:14.706Z,25.47
2018-07-17T10:57:41.353Z,25.58
2018-07-17T11:00:07.979Z,25.65
2018-07-17T11:02:34.699Z,25.53
2018-07-17T11:05:01.278Z,25.47
2018-07-17T11:07:27.920Z,25.48
2018-07-17T11:09:54.653Z,25.39
2018-07-17T11:12:21.693Z,25.36
2018-07-17T11:14:48.464Z,25.40
2018-07-17T11:17:15.165Z,25.35
2018-07-17T11:19:41.912Z,25.36
2018-07-17T11:22:08.737Z,25.43
2018-07-17T11:24:35.330Z,25.40
2018-07-17T11:27:02.202Z,25.30
2018-07-17T11:29:29.116Z,25.29
2018-07-17T11:31:55.937Z,25.31
2018-07-17T11:34:22.964Z,25.31
2018-07-17T11:36:49.716Z,25.31
2018-07-17T11:39:16.598Z,25.40
2018-07-17T11:41:43.408Z,25.34
2018-07-17T11:44:10.303Z,25.30
2018-07-17T11:46:37.475Z,25.33
2018-07-17T11:49:04.653Z,25.38
2018-07-17T11:51:31.255Z,25.32
2018-07-17T11:53:59.590Z,25.33
2018-07-17T11:56:26.251Z,25.32
2018-07-17T11:58:52.952Z,25.33
2018-07-17T12:03:50.764Z,25.38
2018-07-17T12:06:17.897Z,25.37
2018-07-17T12:08:45.478Z,25.34
2018-07-17T12:11:18.406Z,25.36
2018-07-17T12:13:47.051Z,25.39
2018-07-17T12:16:15.908Z,25.45
2018-07-17T12:18:44.681Z,25.40
2018-07-17T12:21:12.144Z,25.39
2018-07-17T12:23:46.817Z,25.38
2018-07-17T12:26:17.209Z,25.51
2018-07-17T12:41:38.759Z,25.46
2018-07-17T12:44:13.275Z,25.46
2018-07-17T12:46:40.362Z,25.49
2018-07-17T12:52:17.740Z,25.40
2018-07-17T12:54:44.710Z,25.44
2018-07-17T12:57:14.806Z,25.50
2018-07-17T12:59:48.492Z,25.46
2018-07-17T13:04:51.802Z,25.43
2018-07-17T13:09:59.212Z,25.47
2018-07-17T13:15:03.178Z,25.38
2018-07-17T13:17:30.595Z,25.44
2018-07-17T13:22:42.239Z,25.36
2018-07-17T13:25:12.398Z,25.28
2018-07-17T13:27:42.498Z,25.38
2018-07-17T14:01:58.919Z,25.38
2018-07-17T14:07:11.020Z,25.48
2018-07-17T14:09:37.852Z,25.46
2018-07-17T14:12:09.455Z,25.44
2018-07-17T14:14:43.287Z,25.48
2018-07-17T14:31:12.618Z,25.62
2018-07-17T14:33:40.141Z,25.65
2018-07-17T14:36:06.461Z,25.67
2018-07-17T14:38:32.959Z,25.67
2018-07-17T14:40:59.377Z,25.63
2018-07-17T14:43:25.833Z,25.71
2018-07-17T14:45:52.185Z,25.65
2018-07-17T14:48:18.575Z,25.62
2018-07-17T14:50:45.189Z,25.62
2018-07-17T14:53:11.563Z,25.74
2018-07-17T14:55:38.242Z,25.81
2018-07-17T14:58:04.651Z,25.75
2018-07-17T15:00:31.234Z,25.73
2018-07-17T15:02:57.781Z,25.79
2018-07-17T15:05:24.225Z,25.76
2018-07-17T15:07:50.864Z,25.72
2018-07-17T15:10:17.324Z,25.63
2018-07-17T15:12:43.776Z,25.64
2018-07-17T15:15:10.133Z,25.61
2018-07-17T15:17:36.937Z,25.71
2018-07-17T15:20:03.607Z,25.72
2018-07-17T15:22:30.136Z,25.73
2018-07-17T15:24:56.547Z,25.61
2018-07-17T15:27:23.063Z,25.53
2018-07-17T15:29:49.509Z,25.59
2018-07-17T15:32:16.299Z,25.60
2018-07-17T15:34:42.962Z,25.57
2018-07-17T15:37:09.526Z,25.59
2018-07-17T15:39:36.170Z,25.56
2018-07-17T15:42:02.768Z,25.51
2018-07-17T15:44:29.589Z,25.48
2018-07-17T15:46:56.124Z,25.40
2018-07-17T15:49:22.713Z,25.40
2018-07-17T15:51:49.122Z,25.48
2018-07-17T15:54:15.506Z,25.37
2018-07-17T15:56:42.093Z,25.31
2018-07-17T15:59:08.643Z,25.32
2018-07-17T16:01:35.277Z,25.29
2018-07-17T16:04:01.695Z,25.22
2018-07-17T16:06:28.085Z,25.21
2018-07-17T16:08:54.467Z,25.19
2018-07-17T16:11:20.902Z,25.21
2018-07-17T16:13:47.444Z,25.14
2018-07-17T16:16:14.167Z,25.14
2018-07-17T16:18:40.805Z,25.14
2018-07-17T16:21:07.309Z,25.06
2018-07-17T16:23:33.730Z,25.09
2018-07-17T16:26:00.134Z,25.09
2018-07-17T16:28:26.769Z,25.05
2018-07-17T16:30:53.182Z,25.01
2018-07-17T16:33:19.731Z,25.02
2018-07-17T16:35:46.150Z,24.95
2018-07-17T16:38:12.634Z,24.97
2018-07-17T16:40:40.251Z,24.90
2018-07-17T16:43:06.602Z,24.88
2018-07-17T16:45:32.934Z,24.91
2018-07-17T16:47:59.340Z,24.86
2018-07-17T16:50:25.837Z,24.80
2018-07-17T16:52:52.311Z,24.84
2018-07-17T16:55:18.689Z,24.82
2018-07-17T16:57:45.030Z,24.84
2018-07-17T17:00:11.494Z,24.79
2018-07-17T17:02:37.919Z,24.84
2018-07-17T17:05:04.347Z,24.94
2018-07-17T17:07:30.699Z,24.92
2018-07-17T17:09:57.127Z,25.00
2018-07-17T17:12:23.468Z,25.02
2018-07-17T17:14:49.886Z,25.01
2018-07-17T17:17:16.555Z,25.09
2018-07-17T17:19:43.012Z,25.04
2018-07-17T17:22:09.543Z,25.04
2018-07-17T17:24:35.944Z,25.14
2018-07-17T17:27:02.441Z,25.07
2018-07-17T17:29:28.930Z,25.10
2018-07-17T17:31:55.291Z,25.10
2018-07-17T17:34:21.622Z,25.07
2018-07-17T17:36:48.031Z,25.10
2018-07-17T17:39:14.439Z,25.01
2018-07-17T17:41:40.875Z,25.08
2018-07-17T17:44:07.406Z,25.07
2018-07-17T17:46:34.025Z,25.05
2018-07-17T17:49:00.369Z,25.00
2018-07-17T17:51:26.734Z,25.00
2018-07-17T17:53:53.094Z,25.02
2018-07-17T17:56:19.494Z,25.00
2018-07-17T17:58:46.272Z,24.95
2018-07-17T18:01:12.926Z,24.98
2018-07-17T18:03:39.294Z,24.91
2018-07-17T18:06:05.686Z,24.91
2018-07-17T18:08:32.072Z,24.89
2018-07-17T18:10:58.434Z,24.90
2018-07-17T18:13:24.750Z,24.87
2018-07-17T18:15:51.356Z,24.83
2018-07-17T18:18:17.976Z,24.86
2018-07-17T18:20:44.508Z,24.85
2018-07-17T18:23:10.892Z,24.87
2018-07-17T18:25:37.336Z,24.84
2018-07-17T18:28:03.859Z,24.84
2018-07-17T18:30:30.380Z,24.78
2018-07-17T18:32:56.912Z,24.85
2018-07-17T18:35:23.264Z,24.85
2018-07-17T18:37:49.592Z,24.80
2018-07-17T18:40:15.925Z,24.84
2018-07-17T18:42:42.494Z,24.80
2018-07-17T18:45:08.979Z,24.77
2018-07-17T18:47:35.376Z,24.75
2018-07-17T18:50:12.584Z,24.72
2018-07-17T18:52:28.227Z,24.69
2018-07-17T18:54:54.637Z,24.75
2018-07-17T18:57:21.335Z,24.87
2018-07-17T18:59:47.814Z,24.86
2018-07-17T19:02:14.359Z,24.85
2018-07-17T19:04:40.753Z,24.88
2018-07-17T19:07:07.411Z,24.92
2018-07-17T19:09:33.814Z,24.92
2018-07-17T19:12:00.185Z,24.91
2018-07-17T19:14:26.835Z,24.91
2018-07-17T19:16:53.269Z,24.97
2018-07-17T19:21:52.190Z,24.85
2018-07-17T19:24:18.615Z,24.84
2018-07-17T19:26:45.163Z,24.82
2018-07-17T19:29:11.745Z,24.84
2018-07-17T19:31:38.407Z,24.85
2018-07-17T19:34:05.007Z,24.79
2018-07-17T19:36:31.409Z,24.74
2018-07-17T19:38:57.751Z,24.77
2018-07-17T19:41:24.164Z,24.76
2018-07-17T19:43:50.514Z,24.76
2018-07-17T19:46:16.881Z,24.73
2018-07-17T19:48:43.279Z,24.74
2018-07-17T19:51:09.646Z,24.69
2018-07-17T19:53:36.004Z,24.64
2018-07-17T19:56:02.441Z,24.70
2018-07-17T19:58:28.802Z,24.70
2018-07-17T20:00:55.313Z,24.72
2018-07-17T20:03:21.637Z,24.64
2018-07-17T20:05:48.003Z,24.63
2018-07-17T20:08:14.532Z,24.61
2018-07-17T20:10:40.930Z,24.58
2018-07-17T20:13:07.393Z,24.57
2018-07-17T20:15:33.780Z,24.58
2018-07-17T20:18:00.108Z,24.61
2018-07-17T20:20:26.422Z,24.56
2018-07-17T20:22:52.750Z,24.55
2018-07-17T20:25:19.136Z,24.51
2018-07-17T20:27:45.554Z,24.56
2018-07-17T20:30:11.978Z,24.57
2018-07-17T20:32:38.340Z,24.54
2018-07-17T20:35:04.741Z,24.55
2018-07-17T20:37:31.110Z,24.49
2018-07-17T20:39:57.432Z,24.51
2018-07-17T20:42:23.798Z,24.50
2018-07-17T20:44:50.165Z,24.46
2018-07-17T20:47:16.495Z,24.46
2018-07-17T20:49:42.982Z,24.45
2018-07-17T20:52:09.386Z,24.46
2018-07-17T20:54:35.793Z,24.45
2018-07-17T20:57:02.196Z,24.42
2018-07-17T20:59:28.559Z,24.42
2018-07-17T21:01:54.987Z,24.36
2018-07-17T21:04:21.326Z,24.41
2018-07-17T21:06:47.692Z,24.35
2018-07-17T21:09:14.040Z,24.42
2018-07-17T21:11:40.449Z,24.38
2018-07-17T21:14:06.787Z,24.36
2018-07-17T21:16:33.174Z,24.36
2018-07-17T21:18:59.525Z,24.26
2018-07-17T21:21:25.856Z,24.30
2018-07-17T21:23:52.194Z,24.28
2018-07-17T21:26:18.543Z,24.32
2018-07-17T21:28:44.972Z,24.32
2018-07-17T21:31:11.299Z,24.31
2018-07-17T21:33:37.640Z,24.33
2018-07-17T21:36:03.987Z,24.26
2018-07-17T21:38:30.401Z,24.29
2018-07-17T21:40:56.788Z,24.29
2018-07-17T21:43:23.124Z,24.24
2018-07-17T21:45:49.584Z,24.25
2018-07-17T21:48:15.989Z,24.24
2018-07-17T21:50:42.417Z,24.26
2018-07-17T21:53:08.812Z,24.21
2018-07-17T21:55:35.143Z,24.21
2018-07-17T21:58:01.519Z,24.21
2018-07-17T22:00:27.859Z,24.20
2018-07-17T22:02:54.179Z,24.19
2018-07-17T22:05:20.541Z,24.18
2018-07-17T22:07:46.895Z,24.15
2018-07-17T22:10:13.236Z,24.14
2018-07-17T22:12:39.613Z,24.19
2018-07-17T22:15:06.046Z,24.12
2018-07-17T22:17:32.429Z,24.09
2018-07-17T22:19:58.758Z,24.13
2018-07-17T22:22:25.173Z,24.09
2018-07-17T22:24:51.541Z,24.08
2018-07-17T22:27:17.899Z,24.08
2018-07-17T22:29:44.282Z,24.10
2018-07-17T22:32:10.602Z,24.12
2018-07-17T22:34:36.971Z,24.12
2018-07-17T22:37:03.379Z,24.10
2018-07-17T22:39:29.740Z,24.09
2018-07-17T22:41:56.085Z,24.08
2018-07-17T22:44:22.417Z,24.06
2018-07-17T22:46:48.762Z,24.00
2018-07-17T22:49:15.134Z,24.01
2018-07-17T22:51:41.609Z,24.01
2018-07-17T22:54:07.944Z,24.01
2018-07-17T22:56:34.272Z,24.00
2018-07-17T22:59:00.680Z,23.96
2018-07-17T23:01:27.427Z,24.00
2018-07-17T23:03:53.759Z,23.97
2018-07-17T23:06:20.103Z,23.98
2018-07-17T23:08:46.513Z,23.96
2018-07-17T23:11:13.037Z,23.91
2018-07-17T23:13:39.499Z,23.95
2018-07-17T23:16:05.840Z,23.95
2018-07-17T23:18:32.218Z,23.96
2018-07-17T23:23:30.932Z,23.91
2018-07-17T23:25:57.303Z,23.88
2018-07-17T23:28:23.737Z,23.92
2018-07-17T23:30:50.225Z,23.95
2018-07-17T23:33:16.759Z,23.91
2018-07-17T23:35:43.096Z,23.87
2018-07-17T23:38:09.667Z,23.86
2018-07-17T23:40:36.046Z,23.83
2018-07-17T23:43:02.559Z,23.86
2018-07-17T23:45:29.007Z,23.85
2018-07-17T23:47:55.328Z,23.85
2018-07-17T23:50:21.669Z,23.85
2018-07-17T23:52:48.013Z,23.83
2018-07-17T23:55:14.603Z,23.83
2018-07-17T23:57:41.055Z,23.83
